createdAt,value
2018-11-12T00:02:01.735Z,87.08
2018-11-12T00:04:29.462Z,85.93
2018-11-12T00:06:57.178Z,85.80
2018-11-12T00:09:24.915Z,86.26
2018-11-12T00:11:52.632Z,87.05
2018-11-12T00:14:20.418Z,87.33
2018-11-12T00:16:48.196Z,87.73
2018-11-12T00:19:16.218Z,87.88
2018-11-12T00:21:43.940Z,87.79
2018-11-12T00:24:11.686Z,86.55
2018-11-12T00:26:39.426Z,86.57
2018-11-12T00:29:07.143Z,85.90
2018-11-12T00:31:34.879Z,86.75
2018-11-12T00:34:02.618Z,87.39
2018-11-12T00:36:30.358Z,87.26
2018-11-12T00:38:58.078Z,86.77
2018-11-12T00:41:25.810Z,86.90
2018-11-12T00:43:53.540Z,87.86
2018-11-12T00:46:21.251Z,87.00
2018-11-12T00:48:48.986Z,87.92
2018-11-12T00:51:16.710Z,87.18
2018-11-12T00:53:44.437Z,86.65
2018-11-12T00:56:12.161Z,87.46
2018-11-12T00:58:39.877Z,86.10
2018-11-12T01:01:08.617Z,85.90
2018-11-12T01:03:36.438Z,86.93
2018-11-12T01:06:04.366Z,88.06
2018-11-12T01:08:32.130Z,87.64
2018-11-12T01:10:59.852Z,87.03
2018-11-12T01:13:27.594Z,86.28
2018-11-12T01:15:55.401Z,85.78
2018-11-12T01:18:23.107Z,86.31
2018-11-12T01:20:50.830Z,86.04
2018-11-12T01:23:18.550Z,84.54
2018-11-12T01:25:46.287Z,86.31
2018-11-12T01:28:14.058Z,86.98
2018-11-12T01:30:41.783Z,86.57
2018-11-12T01:33:09.548Z,86.45
2018-11-12T01:35:37.283Z,85.32
2018-11-12T01:38:05.229Z,87.16
2018-11-12T01:40:33.102Z,88.46
2018-11-12T01:43:00.849Z,87.37
2018-11-12T01:45:28.587Z,87.25
2018-11-12T01:47:56.311Z,88.25
2018-11-12T01:50:24.030Z,87.62
2018-11-12T01:52:51.743Z,85.95
2018-11-12T01:55:19.782Z,87.37
2018-11-12T01:57:47.497Z,84.51
2018-11-12T02:00:17.340Z,85.52
2018-11-12T02:02:46.349Z,87.71
2018-11-12T02:05:14.105Z,87.83
2018-11-12T02:07:41.840Z,85.93
2018-11-12T02:10:11.371Z,85.02
2018-11-12T02:12:45.167Z,86.65
2018-11-12T02:15:14.767Z,85.23
2018-11-12T02:17:43.426Z,85.03
2018-11-12T02:20:13.294Z,84.56
2018-11-12T02:22:41.870Z,84.14
2018-11-12T02:25:10.644Z,84.08
2018-11-12T02:27:38.383Z,86.62
2018-11-12T02:30:14.015Z,84.56
2018-11-12T02:32:41.822Z,84.81
2018-11-12T02:35:09.821Z,85.80
2018-11-12T02:37:37.973Z,87.35
2018-11-12T02:40:07.714Z,87.21
2018-11-12T02:42:35.432Z,87.38
2018-11-12T02:45:03.295Z,86.99
2018-11-12T02:47:31.274Z,86.73
2018-11-12T02:49:59.138Z,88.16
2018-11-12T02:52:27.054Z,88.25
2018-11-12T02:54:54.801Z,87.41
2018-11-12T02:57:22.528Z,88.14
2018-11-12T02:59:50.294Z,87.50
2018-11-12T03:02:18.034Z,87.89
2018-11-12T03:04:45.770Z,88.92
2018-11-12T03:07:13.526Z,88.14
2018-11-12T03:09:41.242Z,87.47
2018-11-12T03:12:08.962Z,86.97
2018-11-12T03:14:36.694Z,86.66
2018-11-12T03:17:04.555Z,87.53
2018-11-12T03:19:32.278Z,88.39
2018-11-12T03:21:59.998Z,87.92
2018-11-12T03:24:27.718Z,86.89
2018-11-12T03:26:55.421Z,86.16
2018-11-12T03:29:23.156Z,86.27
2018-11-12T03:31:50.868Z,85.87
2018-11-12T03:34:18.575Z,84.76
2018-11-12T03:36:46.304Z,86.38
2018-11-12T03:39:14.005Z,86.02
2018-11-12T03:41:41.723Z,84.93
2018-11-12T03:44:09.435Z,85.57
2018-11-12T03:46:37.179Z,85.17
2018-11-12T03:49:04.995Z,84.58
2018-11-12T03:51:32.740Z,86.46
2018-11-12T03:54:00.462Z,86.12
2018-11-12T03:56:28.194Z,87.40
2018-11-12T03:58:55.919Z,88.02
2018-11-12T04:01:28.131Z,88.33
2018-11-12T04:03:55.850Z,87.74
2018-11-12T04:06:23.574Z,87.71
2018-11-12T04:08:51.298Z,88.71
2018-11-12T04:11:19.042Z,89.45
2018-11-12T04:13:46.774Z,88.92
2018-11-12T04:16:14.528Z,88.12
2018-11-12T04:18:42.259Z,88.29
2018-11-12T04:21:09.982Z,88.65
2018-11-12T04:23:37.714Z,88.49
2018-11-12T04:26:05.552Z,88.14
2018-11-12T04:28:33.313Z,88.60
2018-11-12T04:31:01.038Z,88.27
2018-11-12T04:33:28.778Z,88.11
2018-11-12T04:35:56.511Z,87.89
2018-11-12T04:38:24.234Z,87.58
2018-11-12T04:40:51.967Z,86.96
2018-11-12T04:43:19.759Z,87.13
2018-11-12T04:45:47.499Z,87.20
2018-11-12T04:48:15.228Z,88.47
2018-11-12T04:50:43.011Z,88.82
2018-11-12T04:53:10.718Z,88.29
2018-11-12T04:55:39.108Z,88.36
2018-11-12T04:58:06.934Z,87.97
2018-11-12T05:00:34.691Z,88.00
2018-11-12T05:03:02.451Z,88.25
2018-11-12T05:05:30.171Z,88.66
2018-11-12T05:07:57.928Z,89.29
2018-11-12T05:10:26.516Z,88.87
2018-11-12T05:12:54.630Z,88.02
2018-11-12T05:15:23.418Z,87.10
2018-11-12T05:17:51.180Z,86.17
2018-11-12T05:20:23.018Z,86.74
2018-11-12T05:22:51.362Z,87.72
2018-11-12T05:25:19.091Z,87.09
2018-11-12T05:27:46.820Z,86.65
2018-11-12T05:30:16.651Z,85.81
2018-11-12T05:32:44.366Z,86.99
2018-11-12T05:35:13.234Z,88.29
2018-11-12T05:37:41.080Z,87.97
2018-11-12T05:40:12.238Z,87.09
2018-11-12T05:42:40.466Z,86.99
2018-11-12T05:45:08.244Z,86.47
2018-11-12T05:47:36.722Z,85.71
2018-11-12T05:50:06.938Z,86.09
2018-11-12T05:52:34.680Z,86.64
2018-11-12T05:55:02.418Z,86.92
2018-11-12T05:57:30.149Z,86.84
2018-11-12T05:59:57.887Z,86.05
2018-11-12T06:02:25.621Z,85.56
2018-11-12T06:04:53.429Z,84.90
2018-11-12T06:07:21.166Z,85.03
2018-11-12T06:09:48.899Z,85.49
2018-11-12T06:12:16.662Z,84.94
2018-11-12T06:14:44.407Z,85.49
2018-11-12T06:17:12.158Z,85.51
2018-11-12T06:19:39.877Z,85.51
2018-11-12T06:22:07.637Z,85.63
2018-11-12T06:24:35.399Z,85.84
2018-11-12T06:27:03.227Z,85.88
2018-11-12T06:29:31.014Z,85.11
2018-11-12T06:31:58.738Z,85.21
2018-11-12T06:34:26.528Z,85.55
2018-11-12T06:36:54.416Z,85.28
2018-11-12T06:39:22.107Z,85.24
2018-11-12T06:41:49.937Z,85.28
2018-11-12T06:44:17.667Z,84.81
2018-11-12T06:46:45.383Z,85.06
2018-11-12T06:49:13.127Z,85.33
2018-11-12T06:51:40.873Z,84.91
2018-11-12T06:54:08.608Z,85.23
2018-11-12T06:56:36.402Z,84.90
2018-11-12T06:59:04.205Z,84.75
2018-11-12T07:01:31.949Z,84.78
2018-11-12T07:03:59.685Z,84.78
2018-11-12T07:06:27.476Z,84.72
2018-11-12T07:08:55.222Z,84.30
2018-11-12T07:11:22.957Z,84.08
2018-11-12T07:13:50.739Z,84.29
2018-11-12T07:16:18.529Z,84.29
2018-11-12T07:18:46.297Z,84.02
2018-11-12T07:21:14.025Z,83.80
2018-11-12T07:23:41.744Z,84.01
2018-11-12T07:26:09.505Z,84.40
2018-11-12T07:28:37.265Z,84.22
2018-11-12T07:31:05.199Z,84.04
2018-11-12T07:33:32.959Z,83.89
2018-11-12T07:36:00.711Z,82.86
2018-11-12T07:38:28.475Z,82.52
2018-11-12T07:40:56.218Z,81.49
2018-11-12T07:43:23.961Z,80.87
2018-11-12T07:45:51.692Z,80.69
2018-11-12T07:48:19.478Z,80.50
2018-11-12T07:50:47.219Z,79.96
2018-11-12T07:53:14.958Z,80.47
2018-11-12T07:55:42.737Z,79.51
2018-11-12T07:58:10.512Z,80.08
2018-11-12T08:00:38.243Z,79.51
2018-11-12T08:03:11.567Z,78.36
2018-11-12T08:05:39.966Z,78.12
2018-11-12T08:08:08.126Z,78.80
2018-11-12T08:10:35.865Z,77.27
2018-11-12T08:13:03.626Z,77.49
2018-11-12T08:15:31.434Z,77.02
2018-11-12T08:18:01.891Z,76.53
2018-11-12T08:20:29.715Z,75.94
2018-11-12T08:22:57.531Z,76.16
2018-11-12T08:25:25.268Z,76.35
2018-11-12T08:27:53.046Z,75.67
2018-11-12T08:30:22.019Z,74.48
2018-11-12T08:32:51.179Z,74.31
2018-11-12T08:35:18.914Z,74.47
2018-11-12T08:37:47.258Z,74.05
2018-11-12T08:40:18.450Z,74.23
2018-11-12T08:42:46.869Z,74.27
2018-11-12T08:45:14.834Z,74.45
2018-11-12T08:47:44.022Z,74.95
2018-11-12T08:50:13.760Z,74.23
2018-11-12T08:52:42.739Z,74.19
2018-11-12T08:55:12.525Z,73.53
2018-11-12T08:57:41.684Z,72.98
2018-11-12T09:00:10.483Z,73.37
2018-11-12T09:02:38.327Z,72.60
2018-11-12T09:05:07.287Z,72.48
2018-11-12T09:07:35.096Z,72.18
2018-11-12T09:10:02.936Z,71.97
2018-11-12T09:12:30.637Z,71.30
2018-11-12T09:14:58.386Z,71.57
2018-11-12T09:17:26.135Z,70.53
2018-11-12T09:19:53.892Z,71.08
2018-11-12T09:22:21.631Z,70.08
2018-11-12T09:24:49.346Z,69.93
2018-11-12T09:27:17.086Z,69.13
2018-11-12T09:29:44.834Z,69.59
2018-11-12T09:32:12.583Z,69.36
2018-11-12T09:34:40.362Z,69.28
2018-11-12T09:37:08.142Z,68.83
2018-11-12T09:39:35.899Z,69.25
2018-11-12T09:42:03.671Z,70.24
2018-11-12T09:44:31.390Z,68.82
2018-11-12T09:46:59.158Z,68.00
2018-11-12T09:49:26.968Z,68.84
2018-11-12T09:51:54.639Z,68.25
2018-11-12T09:54:22.562Z,68.00
2018-11-12T09:56:50.149Z,68.80
2018-11-12T09:59:17.908Z,68.71
2018-11-12T10:01:46.086Z,68.44
2018-11-12T10:04:14.456Z,68.02
2018-11-12T10:06:42.822Z,67.99
2018-11-12T10:09:13.764Z,67.90
2018-11-12T10:11:41.164Z,67.65
2018-11-12T10:14:09.645Z,67.73
2018-11-12T10:16:38.289Z,67.53
2018-11-12T10:19:03.696Z,66.42
2018-11-12T10:21:31.488Z,66.12
2018-11-12T10:23:59.230Z,67.25
2018-11-12T10:26:27.109Z,66.56
2018-11-12T10:28:54.807Z,66.97
2018-11-12T10:31:22.562Z,67.01
2018-11-12T10:33:50.301Z,66.55
2018-11-12T10:36:18.043Z,66.72
2018-11-12T10:38:45.782Z,66.60
2018-11-12T10:41:13.538Z,66.46
2018-11-12T10:43:41.266Z,67.02
2018-11-12T10:46:09.098Z,66.82
2018-11-12T10:48:36.919Z,66.84
2018-11-12T10:51:05.279Z,67.29
2018-11-12T10:53:32.590Z,67.44
2018-11-12T10:56:00.598Z,67.80
2018-11-12T10:58:28.183Z,67.25
2018-11-12T11:01:01.880Z,67.59
2018-11-12T11:03:32.477Z,67.37
2018-11-12T11:06:00.333Z,67.64
2018-11-12T11:08:28.649Z,67.86
2018-11-12T11:10:56.439Z,67.20
2018-11-12T11:13:24.196Z,67.00
2018-11-12T11:15:51.982Z,66.71
2018-11-12T11:18:19.735Z,66.91
2018-11-12T11:20:47.467Z,67.04
2018-11-12T11:23:15.189Z,67.08
2018-11-12T11:25:42.980Z,66.62
2018-11-12T11:28:10.728Z,67.43
2018-11-12T11:30:38.662Z,66.97
2018-11-12T11:33:06.438Z,66.46
2018-11-12T11:35:34.207Z,66.66
2018-11-12T11:38:02.004Z,66.82
2018-11-12T11:40:29.771Z,67.72
2018-11-12T11:42:57.487Z,68.28
2018-11-12T11:45:25.248Z,67.61
2018-11-12T11:47:53.572Z,67.77
2018-11-12T11:50:23.556Z,67.53
2018-11-12T11:52:51.317Z,67.56
2018-11-12T11:55:20.361Z,67.44
2018-11-12T11:57:48.469Z,67.39
2018-11-12T12:00:18.067Z,67.68
2018-11-12T12:02:47.534Z,68.31
2018-11-12T12:05:16.254Z,67.48
2018-11-12T12:07:44.079Z,68.05
2018-11-12T12:10:12.747Z,67.56
2018-11-12T12:12:41.024Z,67.30
2018-11-12T12:15:10.342Z,67.82
2018-11-12T12:17:38.165Z,67.84
2018-11-12T12:20:09.126Z,67.82
2018-11-12T12:22:36.878Z,67.65
2018-11-12T12:25:05.516Z,68.02
2018-11-12T12:27:33.216Z,68.28
2018-11-12T12:30:00.983Z,68.09
2018-11-12T12:32:30.011Z,67.78
2018-11-12T12:34:57.791Z,67.31
2018-11-12T12:37:25.534Z,67.75
2018-11-12T12:39:53.295Z,68.08
2018-11-12T12:42:21.119Z,67.54
2018-11-12T12:44:48.908Z,67.83
2018-11-12T12:47:17.922Z,67.63
2018-11-12T13:04:43.062Z,68.73
2018-11-12T13:07:10.848Z,68.71
2018-11-12T13:09:38.587Z,68.69
2018-11-12T13:12:06.357Z,68.64
2018-11-12T13:14:34.191Z,67.26
2018-11-12T13:17:01.878Z,67.02
2018-11-12T13:19:29.611Z,67.79
2018-11-12T13:21:57.334Z,68.04
2018-11-12T13:24:25.731Z,68.56
2018-11-12T13:26:53.482Z,68.82
2018-11-12T13:29:21.361Z,70.01
2018-11-12T13:31:49.110Z,70.02
2018-11-12T13:34:16.884Z,68.21
2018-11-12T13:36:44.753Z,68.44
2018-11-12T13:39:13.075Z,69.15
2018-11-12T13:41:41.086Z,68.45
2018-11-12T13:44:08.894Z,67.84
2018-11-12T13:46:42.139Z,67.90
2018-11-12T13:49:10.151Z,67.60
2018-11-12T13:51:37.971Z,67.59
2018-11-12T13:54:06.447Z,67.09
2018-11-12T13:56:34.227Z,68.46
2018-11-12T13:59:02.197Z,71.25
2018-11-12T14:01:30.444Z,70.96
2018-11-12T14:03:58.235Z,68.85
2018-11-12T14:06:26.003Z,69.65
2018-11-12T14:08:54.143Z,69.22
2018-11-12T14:11:21.874Z,69.46
2018-11-12T14:13:49.660Z,71.10
2018-11-12T14:16:17.679Z,73.56
2018-11-12T14:18:45.432Z,72.27
2018-11-12T14:21:13.250Z,73.08
2018-11-12T14:23:40.979Z,72.31
2018-11-12T14:26:08.739Z,73.51
2018-11-12T14:28:36.649Z,73.93
2018-11-12T14:31:04.294Z,73.50
2018-11-12T14:33:32.051Z,71.46
2018-11-12T14:35:59.846Z,72.57
2018-11-12T14:38:27.583Z,74.64
2018-11-12T14:40:55.311Z,75.28
2018-11-12T14:43:23.032Z,75.68
2018-11-12T14:45:50.762Z,75.68
2018-11-12T14:48:18.495Z,76.23
2018-11-12T14:50:46.227Z,77.06
2018-11-12T14:53:13.959Z,77.06
2018-11-12T14:55:41.691Z,78.20
2018-11-12T14:58:09.469Z,78.30
2018-11-12T15:00:37.184Z,77.83
2018-11-12T15:03:04.955Z,78.52
2018-11-12T15:05:32.707Z,78.08
2018-11-12T15:08:00.489Z,78.37
2018-11-12T15:10:28.219Z,78.54
2018-11-12T15:12:55.954Z,78.22
2018-11-12T15:15:23.718Z,77.72
2018-11-12T15:17:52.153Z,79.29
2018-11-12T15:20:20.331Z,78.65
2018-11-12T15:22:48.207Z,79.27
2018-11-12T15:25:18.527Z,79.65
2018-11-12T15:27:46.336Z,79.92
2018-11-12T15:30:18.347Z,79.92
2018-11-12T15:32:47.890Z,80.59
2018-11-12T15:35:15.646Z,81.03
2018-11-12T15:37:44.280Z,80.98
2018-11-12T15:40:12.475Z,80.92
2018-11-12T15:42:40.491Z,81.79
2018-11-12T15:45:13.480Z,81.48
2018-11-12T15:47:41.672Z,82.03
2018-11-12T15:50:14.778Z,82.15
2018-11-12T15:52:42.899Z,82.51
2018-11-12T15:55:10.685Z,82.86
2018-11-12T15:57:38.606Z,82.91
2018-11-12T16:00:08.550Z,82.84
2018-11-12T16:02:36.293Z,83.21
2018-11-12T16:05:04.999Z,83.16
2018-11-12T16:07:32.975Z,83.04
2018-11-12T16:10:00.724Z,82.68
2018-11-12T16:12:28.554Z,82.78
2018-11-12T16:14:56.282Z,82.16
2018-11-12T16:17:24.047Z,82.83
2018-11-12T16:19:51.824Z,82.00
2018-11-12T16:22:19.562Z,82.58
2018-11-12T16:24:47.323Z,82.07
2018-11-12T16:27:15.067Z,81.71
2018-11-12T16:29:42.779Z,81.95
2018-11-12T16:32:10.523Z,81.98
2018-11-12T16:34:38.254Z,82.61
2018-11-12T16:37:06.022Z,83.04
2018-11-12T16:39:33.755Z,82.91
2018-11-12T16:42:01.507Z,82.29
2018-11-12T16:44:29.210Z,82.42
2018-11-12T16:46:56.948Z,82.24
2018-11-12T16:49:24.704Z,82.18
2018-11-12T16:51:52.517Z,81.82
2018-11-12T16:54:20.271Z,80.75
2018-11-12T16:56:47.997Z,80.40
2018-11-12T16:59:15.720Z,80.56
2018-11-12T17:01:43.464Z,80.23
2018-11-12T17:04:11.192Z,79.49
2018-11-12T17:06:38.933Z,79.21
2018-11-12T17:09:10.575Z,80.08
2018-11-12T17:11:38.367Z,79.18
2018-11-12T17:14:06.690Z,80.23
2018-11-12T17:16:34.426Z,79.07
2018-11-12T17:19:02.199Z,79.44
2018-11-12T17:21:29.955Z,79.55
2018-11-12T17:23:57.674Z,79.63
2018-11-12T17:26:25.420Z,80.08
2018-11-12T17:28:53.174Z,80.12
2018-11-12T17:31:21.742Z,79.96
2018-11-12T17:33:49.486Z,79.51
2018-11-12T17:36:17.243Z,79.72
2018-11-12T17:38:44.967Z,80.34
2018-11-12T17:41:12.708Z,80.08
2018-11-12T17:43:40.435Z,79.61
2018-11-12T17:46:08.195Z,79.77
2018-11-12T17:48:35.926Z,80.70
2018-11-12T17:51:03.730Z,82.25
2018-11-12T17:53:31.487Z,80.74
2018-11-12T17:55:59.229Z,80.90
2018-11-12T17:58:26.967Z,81.37
2018-11-12T18:00:54.714Z,80.62
2018-11-12T18:03:22.447Z,80.87
2018-11-12T18:05:50.190Z,80.14
2018-11-12T18:08:18.016Z,79.90
2018-11-12T18:10:45.739Z,80.17
2018-11-12T18:13:13.481Z,81.03
2018-11-12T18:15:41.223Z,79.95
2018-11-12T18:18:08.981Z,80.65
2018-11-12T18:20:36.702Z,80.98
2018-11-12T18:23:04.650Z,80.54
2018-11-12T18:25:32.455Z,80.84
2018-11-12T18:28:00.167Z,81.58
2018-11-12T18:30:29.722Z,81.25
2018-11-12T18:32:57.880Z,81.09
2018-11-12T18:35:25.655Z,81.66
2018-11-12T18:37:53.457Z,82.53
2018-11-12T18:40:22.600Z,81.32
2018-11-12T18:42:50.336Z,81.45
2018-11-12T18:45:19.515Z,82.06
2018-11-12T18:47:47.283Z,82.57
2018-11-12T18:50:19.111Z,82.82
2018-11-12T18:52:47.012Z,82.67
2018-11-12T18:55:14.747Z,82.86
2018-11-12T18:57:43.256Z,83.67
2018-11-12T19:00:12.576Z,81.66
2018-11-12T19:02:40.326Z,81.39
2018-11-12T19:05:15.590Z,82.26
2018-11-12T19:07:45.227Z,81.42
2018-11-12T19:10:15.654Z,82.84
2018-11-12T19:12:44.328Z,82.82
2018-11-12T19:15:14.613Z,82.92
2018-11-12T19:17:43.453Z,82.66
2018-11-12T19:20:11.248Z,82.37
2018-11-12T19:22:39.303Z,82.45
2018-11-12T19:25:08.578Z,83.37
2018-11-12T19:27:36.320Z,83.75
2018-11-12T19:30:05.067Z,84.15
2018-11-12T19:32:32.823Z,83.74
2018-11-12T19:35:01.228Z,83.85
2018-11-12T19:37:28.945Z,83.90
2018-11-12T19:39:56.669Z,83.91
2018-11-12T19:42:24.389Z,83.68
2018-11-12T19:44:52.128Z,83.02
2018-11-12T19:47:19.863Z,82.97
2018-11-12T19:49:47.594Z,83.53
2018-11-12T19:52:15.339Z,82.47
2018-11-12T19:54:43.153Z,81.77
2018-11-12T19:57:10.854Z,83.36
2018-11-12T19:59:38.562Z,82.82
2018-11-12T20:02:06.375Z,82.70
2018-11-12T20:04:34.112Z,83.07
2018-11-12T20:07:01.867Z,83.62
2018-11-12T20:09:29.605Z,83.12
2018-11-12T20:11:57.336Z,83.27
2018-11-12T20:14:25.115Z,83.97
2018-11-12T20:16:52.870Z,83.34
2018-11-12T20:19:20.631Z,84.23
2018-11-12T20:21:48.382Z,84.66
2018-11-12T20:24:16.126Z,84.03
2018-11-12T20:26:43.856Z,83.08
2018-11-12T20:29:11.595Z,82.99
2018-11-12T20:31:39.318Z,83.18
2018-11-12T20:34:07.096Z,84.03
2018-11-12T20:36:34.879Z,84.04
2018-11-12T20:39:03.334Z,82.67
2018-11-12T20:41:31.098Z,82.59
2018-11-12T20:43:58.817Z,81.87
2018-11-12T20:46:26.558Z,82.16
2018-11-12T20:48:54.338Z,82.73
2018-11-12T20:51:22.114Z,83.79
2018-11-12T20:53:50.805Z,83.46
2018-11-12T20:56:18.539Z,83.31
2018-11-12T20:58:46.348Z,84.80
2018-11-12T21:01:14.091Z,84.42
2018-11-12T21:03:41.810Z,84.40
2018-11-12T21:06:09.536Z,84.86
2018-11-12T21:08:37.258Z,85.11
2018-11-12T21:11:05.111Z,84.97
2018-11-12T21:13:32.855Z,85.15
2018-11-12T21:16:00.611Z,84.64
2018-11-12T21:18:28.359Z,83.72
2018-11-12T21:20:56.089Z,84.02
2018-11-12T21:23:23.818Z,84.92
2018-11-12T21:25:51.558Z,84.73
2018-11-12T21:28:19.304Z,85.62
2018-11-12T21:30:47.084Z,85.09
2018-11-12T21:33:14.811Z,83.81
2018-11-12T21:35:42.542Z,84.03
2018-11-12T21:38:10.274Z,83.89
2018-11-12T21:40:38.019Z,83.39
2018-11-12T21:43:05.889Z,84.08
2018-11-12T21:45:33.539Z,84.83
2018-11-12T21:48:01.263Z,84.21
2018-11-12T21:50:29.006Z,84.02
2018-11-12T21:52:56.738Z,84.78
2018-11-12T21:55:24.459Z,84.60
2018-11-12T21:57:52.263Z,84.95
2018-11-12T22:00:27.379Z,85.12
2018-11-12T22:03:02.197Z,85.25
2018-11-12T22:05:30.803Z,84.55
2018-11-12T22:07:58.574Z,84.64
2018-11-12T22:10:26.471Z,85.11
2018-11-12T22:12:54.502Z,84.77
2018-11-12T22:15:22.275Z,84.88
2018-11-12T22:17:50.103Z,85.59
2018-11-12T22:20:19.054Z,85.60
2018-11-12T22:22:46.833Z,85.25
2018-11-12T22:25:16.791Z,84.54
2018-11-12T22:27:45.099Z,84.26
2018-11-12T22:30:14.237Z,83.83
2018-11-12T22:32:42.246Z,85.01
2018-11-12T22:35:10.197Z,85.46
2018-11-12T22:37:38.011Z,86.25
2018-11-12T22:40:06.918Z,86.89
2018-11-12T22:42:34.634Z,86.13
2018-11-12T22:45:02.374Z,85.69
2018-11-12T22:47:30.099Z,85.12
2018-11-12T22:49:57.869Z,85.31
2018-11-12T22:52:25.583Z,84.97
2018-11-12T22:54:53.361Z,86.10
2018-11-12T22:57:21.118Z,84.68
2018-11-12T22:59:48.836Z,86.18
2018-11-12T23:02:16.647Z,86.97
2018-11-12T23:04:44.391Z,86.66
2018-11-12T23:07:12.110Z,86.80
2018-11-12T23:09:39.827Z,87.36
2018-11-12T23:12:07.650Z,86.53
2018-11-12T23:14:35.394Z,85.19
2018-11-12T23:17:03.158Z,86.06
2018-11-12T23:19:30.902Z,86.74
2018-11-12T23:21:58.634Z,87.19
2018-11-12T23:24:26.354Z,87.30
2018-11-12T23:26:54.066Z,87.09
2018-11-12T23:29:21.778Z,86.18
2018-11-12T23:31:49.500Z,87.27
2018-11-12T23:34:17.262Z,86.98
2018-11-12T23:36:44.994Z,86.82
2018-11-12T23:39:12.719Z,86.50
2018-11-12T23:41:40.466Z,87.26
2018-11-12T23:44:08.199Z,86.71
2018-11-12T23:46:35.920Z,87.97
2018-11-12T23:49:03.738Z,87.96
2018-11-12T23:51:31.489Z,88.07
2018-11-12T23:53:59.462Z,87.28
2018-11-12T23:56:27.165Z,86.92
2018-11-12T23:58:54.894Z,87.18
